createdAt,value
2018-05-29T00:01:29.803Z,17.23
2018-05-29T00:03:58.155Z,18.60
2018-05-29T00:06:26.373Z,19.37
2018-05-29T00:08:54.631Z,18.13
2018-05-29T00:11:22.983Z,18.93
2018-05-29T00:13:51.187Z,16.83
2018-05-29T00:16:19.424Z,15.97
2018-05-29T00:18:47.684Z,16.97
2018-05-29T00:21:15.960Z,17.10
2018-05-29T00:23:44.286Z,15.63
2018-05-29T00:26:12.522Z,14.80
2018-05-29T00:28:40.804Z,16.47
2018-05-29T00:31:09.082Z,17.23
2018-05-29T00:33:37.325Z,16.37
2018-05-29T00:36:05.585Z,17.43
2018-05-29T00:38:33.866Z,17.87
2018-05-29T00:41:02.114Z,16.70
2018-05-29T00:43:30.464Z,17.67
2018-05-29T00:45:58.707Z,17.07
2018-05-29T00:48:26.946Z,17.63
2018-05-29T00:50:55.213Z,17.13
2018-05-29T00:53:23.568Z,16.20
2018-05-29T00:55:51.972Z,17.00
2018-05-29T00:58:20.245Z,16.43
2018-05-29T01:00:48.507Z,16.97
2018-05-29T01:03:16.901Z,17.23
2018-05-29T01:05:45.154Z,15.77
2018-05-29T01:08:13.449Z,16.60
2018-05-29T01:10:41.829Z,15.77
2018-05-29T01:13:10.176Z,15.97
2018-05-29T01:15:38.489Z,16.53
2018-05-29T01:18:06.837Z,16.93
2018-05-29T01:20:35.345Z,16.93
2018-05-29T01:23:03.590Z,17.33
2018-05-29T01:25:31.894Z,16.90
2018-05-29T01:28:00.271Z,17.43
2018-05-29T01:30:28.547Z,17.20
2018-05-29T01:32:56.804Z,17.30
2018-05-29T01:35:25.201Z,16.10
2018-05-29T01:37:53.581Z,15.90
2018-05-29T01:40:21.823Z,16.10
2018-05-29T01:42:50.129Z,16.43
2018-05-29T01:45:18.379Z,16.20
2018-05-29T01:47:46.756Z,16.77
2018-05-29T01:50:15.036Z,17.87
2018-05-29T01:52:43.441Z,17.20
2018-05-29T01:55:11.816Z,16.57
2018-05-29T01:57:40.166Z,16.83
2018-05-29T02:00:08.444Z,16.40
2018-05-29T02:02:36.745Z,16.07
2018-05-29T02:05:05.054Z,14.80
2018-05-29T02:07:33.326Z,14.83
2018-05-29T02:10:01.654Z,16.10
2018-05-29T02:12:30.055Z,17.20
2018-05-29T02:14:58.334Z,15.67
2018-05-29T02:17:26.709Z,16.03
2018-05-29T02:19:54.965Z,15.40
2018-05-29T02:22:23.464Z,15.43
2018-05-29T02:24:52.021Z,15.63
2018-05-29T02:27:20.322Z,15.33
2018-05-29T02:29:48.676Z,14.73
2018-05-29T02:32:17.081Z,14.60
2018-05-29T02:34:45.457Z,14.17
2018-05-29T02:37:13.834Z,13.70
2018-05-29T02:39:42.071Z,14.07
2018-05-29T02:42:10.459Z,13.83
2018-05-29T02:44:38.974Z,13.00
2018-05-29T02:47:07.347Z,12.73
2018-05-29T02:49:35.933Z,12.80
2018-05-29T02:52:04.311Z,12.90
2018-05-29T02:54:32.684Z,12.00
2018-05-29T02:57:00.967Z,11.20
2018-05-29T02:59:29.347Z,12.67
2018-05-29T03:01:57.691Z,11.93
2018-05-29T03:04:26.100Z,11.70
2018-05-29T03:06:54.447Z,11.83
2018-05-29T03:09:22.720Z,11.23
2018-05-29T03:11:51.027Z,11.00
2018-05-29T03:14:19.299Z,11.30
2018-05-29T03:16:47.665Z,10.87
2018-05-29T03:19:15.963Z,11.87
2018-05-29T03:21:44.309Z,10.93
2018-05-29T03:24:12.531Z,11.43
2018-05-29T03:26:40.879Z,12.63
2018-05-29T03:29:09.265Z,12.23
2018-05-29T03:31:37.536Z,11.30
2018-05-29T03:34:06.021Z,13.20
2018-05-29T03:36:34.300Z,11.70
2018-05-29T03:39:02.775Z,11.80
2018-05-29T03:41:31.059Z,11.10
2018-05-29T03:43:59.311Z,10.67
2018-05-29T03:46:27.577Z,11.13
2018-05-29T03:48:55.878Z,10.53
2018-05-29T03:51:24.140Z,11.47
2018-05-29T03:53:52.509Z,9.97
2018-05-29T03:56:20.888Z,10.40
2018-05-29T03:58:49.164Z,10.83
2018-05-29T04:01:17.379Z,9.83
2018-05-29T04:03:45.720Z,10.40
2018-05-29T04:06:14.320Z,10.67
2018-05-29T04:08:43.516Z,10.00
2018-05-29T04:11:11.877Z,9.90
2018-05-29T04:13:40.275Z,10.37
2018-05-29T04:16:08.654Z,10.30
2018-05-29T04:18:36.904Z,10.57
2018-05-29T04:21:05.209Z,10.13
2018-05-29T04:23:33.535Z,10.97
2018-05-29T04:26:01.861Z,11.53
2018-05-29T04:28:30.136Z,13.50
2018-05-29T04:30:58.513Z,13.10
2018-05-29T04:33:26.785Z,14.57
2018-05-29T04:35:55.484Z,16.50
2018-05-29T04:38:23.856Z,16.93
2018-05-29T04:40:52.203Z,15.70
2018-05-29T04:43:20.608Z,15.33
2018-05-29T04:45:48.960Z,16.60
2018-05-29T04:48:17.236Z,16.03
2018-05-29T04:50:45.539Z,15.13
2018-05-29T04:53:13.832Z,14.33
2018-05-29T04:55:42.181Z,16.37
2018-05-29T04:58:10.570Z,20.53
2018-05-29T05:00:38.919Z,19.13
2018-05-29T05:03:07.225Z,32.93
2018-05-29T05:05:35.616Z,47.73
2018-05-29T05:08:03.951Z,64.00
2018-05-29T05:10:32.355Z,60.83
2018-05-29T05:13:00.707Z,63.93
2018-05-29T05:15:28.996Z,54.60
2018-05-29T05:17:57.290Z,41.93
2018-05-29T05:20:25.543Z,36.43
2018-05-29T05:22:53.804Z,30.17
2018-05-29T05:25:22.033Z,22.60
2018-05-29T05:27:50.391Z,20.47
2018-05-29T05:30:18.766Z,21.40
2018-05-29T05:33:10.382Z,20.40
2018-05-29T05:35:46.777Z,19.07
2018-05-29T05:38:15.237Z,19.17
2018-05-29T05:40:43.592Z,20.33
2018-05-29T05:43:12.099Z,19.73
2018-05-29T05:45:40.318Z,19.10
2018-05-29T05:48:08.648Z,17.83
2018-05-29T05:50:37.027Z,17.33
2018-05-29T05:53:05.402Z,18.47
2018-05-29T05:55:33.886Z,17.23
2018-05-29T05:58:02.180Z,17.23
2018-05-29T06:00:30.641Z,16.30
2018-05-29T06:02:58.914Z,16.70
2018-05-29T06:05:27.518Z,16.47
2018-05-29T06:07:55.877Z,15.27
2018-05-29T06:10:24.441Z,15.60
2018-05-29T06:12:52.835Z,16.40
2018-05-29T06:15:21.359Z,15.77
2018-05-29T06:17:49.692Z,17.93
2018-05-29T06:20:17.987Z,16.33
2018-05-29T06:22:46.244Z,15.13
2018-05-29T06:25:14.832Z,15.83
2018-05-29T06:27:43.195Z,15.10
2018-05-29T06:30:11.574Z,20.23
2018-05-29T06:32:40.011Z,15.87
2018-05-29T06:35:08.342Z,17.13
2018-05-29T06:37:36.723Z,18.47
2018-05-29T06:40:05.051Z,18.93
2018-05-29T06:42:33.355Z,17.77
2018-05-29T06:45:01.589Z,18.03
2018-05-29T06:47:29.925Z,17.67
2018-05-29T06:49:58.403Z,17.23
2018-05-29T06:52:26.759Z,19.87
2018-05-29T06:54:55.037Z,16.87
2018-05-29T06:57:23.336Z,15.80
2018-05-29T06:59:51.716Z,14.83
2018-05-29T07:02:20.094Z,14.47
2018-05-29T07:04:48.366Z,13.93
2018-05-29T07:07:16.719Z,14.13
2018-05-29T07:09:45.228Z,13.53
2018-05-29T07:12:13.675Z,13.03
2018-05-29T07:14:42.087Z,12.47
2018-05-29T07:17:10.371Z,11.97
2018-05-29T07:19:38.624Z,12.03
2018-05-29T07:22:06.909Z,12.00
2018-05-29T07:24:35.294Z,10.57
2018-05-29T07:27:03.875Z,12.50
2018-05-29T07:29:32.149Z,10.97
2018-05-29T07:32:00.524Z,11.30
2018-05-29T07:34:28.780Z,10.60
2018-05-29T07:36:57.079Z,12.57
2018-05-29T07:39:25.490Z,10.53
2018-05-29T07:41:53.735Z,10.53
2018-05-29T07:44:22.112Z,10.40
2018-05-29T07:46:50.360Z,10.10
2018-05-29T07:49:18.771Z,9.93
2018-05-29T07:51:47.115Z,8.83
2018-05-29T07:54:15.533Z,8.53
2018-05-29T07:56:43.978Z,8.67
2018-05-29T07:59:12.241Z,7.93
2018-05-29T08:01:40.627Z,8.40
2018-05-29T08:04:09.139Z,7.20
2018-05-29T08:06:37.619Z,7.10
2018-05-29T08:09:06.094Z,8.33
2018-05-29T08:11:34.371Z,9.10
2018-05-29T08:14:02.725Z,9.33
2018-05-29T08:16:31.129Z,8.67
2018-05-29T08:18:59.517Z,8.93
2018-05-29T08:21:27.755Z,9.63
2018-05-29T08:23:56.403Z,8.90
2018-05-29T08:26:24.744Z,8.47
2018-05-29T08:28:53.097Z,9.77
2018-05-29T08:31:21.372Z,8.33
2018-05-29T08:33:49.647Z,8.40
2018-05-29T08:36:17.946Z,9.40
2018-05-29T08:38:46.200Z,8.80
2018-05-29T08:41:14.442Z,8.60
2018-05-29T08:43:42.744Z,8.93
2018-05-29T08:46:11.155Z,8.00
2018-05-29T08:48:39.427Z,8.43
2018-05-29T08:51:07.883Z,8.23
2018-05-29T08:53:36.161Z,8.23
2018-05-29T08:56:04.419Z,8.97
2018-05-29T08:58:32.735Z,8.40
2018-05-29T09:01:01.117Z,7.73
2018-05-29T09:03:29.388Z,8.27
2018-05-29T09:05:57.630Z,7.43
2018-05-29T09:08:25.917Z,7.17
2018-05-29T09:10:54.321Z,6.57
2018-05-29T09:13:22.596Z,7.60
2018-05-29T09:15:51.080Z,6.87
2018-05-29T09:18:19.458Z,6.97
2018-05-29T09:20:47.816Z,6.20
2018-05-29T09:23:16.214Z,7.40
2018-05-29T09:25:44.639Z,8.30
2018-05-29T09:28:12.969Z,7.57
2018-05-29T09:30:41.193Z,7.00
2018-05-29T09:33:09.478Z,7.37
2018-05-29T09:35:37.764Z,6.83
2018-05-29T09:38:06.072Z,7.13
2018-05-29T09:40:34.447Z,6.23
2018-05-29T09:43:02.800Z,6.80
2018-05-29T09:45:31.308Z,7.43
2018-05-29T09:47:59.661Z,7.87
2018-05-29T09:50:27.963Z,7.97
2018-05-29T09:52:56.229Z,7.23
2018-05-29T09:55:24.718Z,7.53
2018-05-29T09:57:53.199Z,7.17
2018-05-29T10:00:27.516Z,7.30
2018-05-29T10:02:55.891Z,7.27
2018-05-29T10:05:24.166Z,7.63
2018-05-29T10:07:52.549Z,7.30
2018-05-29T10:10:20.791Z,7.57
2018-05-29T10:12:49.085Z,7.70
2018-05-29T10:15:17.478Z,9.23
2018-05-29T10:17:45.863Z,9.30
2018-05-29T10:20:14.199Z,8.93
2018-05-29T10:22:42.484Z,8.53
2018-05-29T10:25:10.755Z,9.10
2018-05-29T10:27:39.040Z,8.40
2018-05-29T10:30:07.337Z,8.23
2018-05-29T10:32:35.711Z,8.43
2018-05-29T10:35:04.092Z,9.30
2018-05-29T10:37:32.654Z,9.30
2018-05-29T10:40:00.953Z,8.53
2018-05-29T10:42:29.432Z,8.23
2018-05-29T10:44:57.826Z,8.73
2018-05-29T10:47:26.023Z,8.63
2018-05-29T10:49:54.437Z,7.97
2018-05-29T10:52:22.761Z,8.03
2018-05-29T10:54:51.091Z,9.27
2018-05-29T10:57:19.435Z,8.30
2018-05-29T10:59:47.768Z,9.57
2018-05-29T11:02:16.144Z,9.83
2018-05-29T11:04:44.420Z,9.80
2018-05-29T11:07:12.681Z,9.30
2018-05-29T11:09:41.184Z,10.17
2018-05-29T11:12:09.661Z,9.80
2018-05-29T11:14:38.042Z,9.43
2018-05-29T11:17:06.280Z,9.77
2018-05-29T11:19:34.620Z,10.13
2018-05-29T11:22:02.967Z,10.93
2018-05-29T11:24:31.315Z,10.40
2018-05-29T11:26:59.691Z,10.80
2018-05-29T11:29:27.929Z,9.47
2018-05-29T11:31:56.328Z,9.77
2018-05-29T11:34:24.547Z,10.10
2018-05-29T11:36:53.133Z,10.50
2018-05-29T11:39:21.525Z,10.33
2018-05-29T11:41:49.775Z,10.50
2018-05-29T11:44:18.062Z,10.37
2018-05-29T11:46:46.454Z,9.93
2018-05-29T11:49:14.672Z,9.83
2018-05-29T11:51:42.951Z,9.93
2018-05-29T11:54:11.171Z,10.97
2018-05-29T11:56:39.401Z,11.03
2018-05-29T11:59:07.684Z,8.77
2018-05-29T12:01:35.993Z,8.30
2018-05-29T12:04:04.273Z,9.30
2018-05-29T12:06:32.481Z,10.17
2018-05-29T12:09:00.796Z,9.43
2018-05-29T12:11:29.030Z,8.60
2018-05-29T12:13:57.479Z,9.07
2018-05-29T12:16:25.854Z,9.13
2018-05-29T12:18:54.095Z,8.83
2018-05-29T12:21:22.379Z,9.60
2018-05-29T12:23:50.715Z,7.40
2018-05-29T12:26:19.062Z,8.23
2018-05-29T12:28:47.424Z,8.57
2018-05-29T12:31:15.812Z,8.63
2018-05-29T12:33:44.095Z,9.77
2018-05-29T12:36:12.299Z,8.03
2018-05-29T12:38:40.663Z,8.57
2018-05-29T12:41:09.022Z,8.90
2018-05-29T12:43:37.403Z,9.63
2018-05-29T12:46:05.625Z,10.47
2018-05-29T12:48:33.915Z,9.83
2018-05-29T12:51:02.326Z,9.33
2018-05-29T12:53:30.715Z,9.70
2018-05-29T12:55:59.085Z,9.97
2018-05-29T12:58:27.443Z,9.83
2018-05-29T13:00:55.739Z,9.90
2018-05-29T13:03:23.959Z,10.40
2018-05-29T13:05:52.289Z,10.47
2018-05-29T13:08:20.666Z,10.70
2018-05-29T13:10:48.873Z,11.73
2018-05-29T13:13:17.323Z,10.30
2018-05-29T13:15:45.594Z,11.97
2018-05-29T13:18:13.858Z,12.27
2018-05-29T13:20:42.126Z,12.57
2018-05-29T13:23:10.527Z,9.77
2018-05-29T13:25:38.979Z,11.00
2018-05-29T13:28:07.282Z,9.97
2018-05-29T13:30:35.559Z,10.10
2018-05-29T13:33:03.937Z,9.80
2018-05-29T13:35:32.312Z,10.97
2018-05-29T13:38:00.793Z,9.93
2018-05-29T13:40:29.174Z,10.63
2018-05-29T13:42:57.394Z,9.83
2018-05-29T13:45:25.696Z,9.47
2018-05-29T13:47:54.015Z,8.50
2018-05-29T13:50:22.274Z,8.30
2018-05-29T13:52:50.513Z,9.37
2018-05-29T13:55:18.803Z,8.17
2018-05-29T13:57:47.105Z,8.17
2018-05-29T14:00:15.451Z,8.43
2018-05-29T14:02:43.860Z,8.67
2018-05-29T14:05:12.133Z,7.90
2018-05-29T14:07:40.617Z,8.77
2018-05-29T14:10:08.991Z,10.47
2018-05-29T14:12:37.263Z,9.67
2018-05-29T14:15:05.527Z,8.60
2018-05-29T14:17:33.900Z,7.00
2018-05-29T14:20:03.220Z,8.73
2018-05-29T14:22:31.603Z,9.20
2018-05-29T14:24:59.863Z,8.03
2018-05-29T14:27:28.092Z,9.57
2018-05-29T14:29:57.256Z,8.70
2018-05-29T14:32:25.599Z,9.63
2018-05-29T14:34:53.862Z,9.37
2018-05-29T14:37:22.285Z,8.83
2018-05-29T14:39:50.659Z,8.93
2018-05-29T14:42:19.015Z,8.83
2018-05-29T14:44:47.311Z,10.33
2018-05-29T14:47:15.666Z,9.70
2018-05-29T14:49:44.061Z,8.80
2018-05-29T14:52:12.523Z,10.30
2018-05-29T14:54:40.800Z,9.83
2018-05-29T14:57:09.068Z,8.77
2018-05-29T14:59:37.286Z,8.63
2018-05-29T15:02:05.624Z,8.17
2018-05-29T15:04:34.032Z,9.37
2018-05-29T15:07:02.379Z,8.57
2018-05-29T15:09:30.681Z,9.60
2018-05-29T15:11:59.165Z,8.07
2018-05-29T15:14:27.419Z,7.27
2018-05-29T15:16:55.719Z,8.30
2018-05-29T15:19:23.929Z,8.40
2018-05-29T15:21:52.186Z,9.10
2018-05-29T15:24:20.517Z,9.30
2018-05-29T15:26:48.792Z,8.47
2018-05-29T15:29:17.031Z,8.10
2018-05-29T15:31:45.370Z,8.80
2018-05-29T15:34:13.726Z,8.73
2018-05-29T15:36:42.031Z,8.10
2018-05-29T15:39:10.513Z,7.40
2018-05-29T15:41:38.759Z,6.90
2018-05-29T15:44:07.158Z,6.73
2018-05-29T15:46:35.508Z,6.73
2018-05-29T15:49:03.722Z,6.57
2018-05-29T15:51:31.981Z,7.43
2018-05-29T15:54:00.275Z,7.57
2018-05-29T15:56:28.636Z,8.90
2018-05-29T15:58:56.917Z,8.47
2018-05-29T16:01:25.290Z,8.10
2018-05-29T16:03:53.566Z,8.57
2018-05-29T16:06:21.919Z,10.27
2018-05-29T16:08:50.220Z,9.27
2018-05-29T16:11:18.605Z,9.47
2018-05-29T16:13:46.855Z,10.20
2018-05-29T16:16:15.149Z,10.13
2018-05-29T16:18:43.630Z,10.10
2018-05-29T16:21:12.211Z,10.57
2018-05-29T16:23:40.567Z,9.70
2018-05-29T16:26:08.843Z,9.13
2018-05-29T16:28:37.151Z,9.50
2018-05-29T16:31:05.403Z,11.57
2018-05-29T16:33:33.801Z,11.20
2018-05-29T16:36:02.178Z,11.87
2018-05-29T16:38:30.658Z,12.63
2018-05-29T16:40:59.036Z,10.70
2018-05-29T16:43:27.411Z,11.00
2018-05-29T16:45:55.789Z,10.57
2018-05-29T16:48:24.170Z,12.70
2018-05-29T16:50:52.553Z,11.13
2018-05-29T16:53:20.774Z,12.80
2018-05-29T16:55:48.980Z,11.83
2018-05-29T16:58:17.269Z,13.10
2018-05-29T17:00:45.544Z,12.93
2018-05-29T17:03:13.943Z,13.87
2018-05-29T17:05:42.278Z,15.23
2018-05-29T17:08:10.484Z,15.03
2018-05-29T17:10:38.959Z,14.53
2018-05-29T17:13:07.332Z,14.87
2018-05-29T17:15:35.608Z,14.67
2018-05-29T17:18:03.886Z,14.67
2018-05-29T17:20:32.267Z,14.57
2018-05-29T17:23:00.615Z,14.57
2018-05-29T17:25:28.995Z,14.63
2018-05-29T17:27:57.503Z,14.70
2018-05-29T17:30:25.856Z,14.40
2018-05-29T17:32:54.256Z,13.90
2018-05-29T17:35:22.538Z,14.63
2018-05-29T17:37:50.780Z,16.00
2018-05-29T17:40:19.024Z,17.73
2018-05-29T17:42:47.335Z,17.50
2018-05-29T17:45:15.636Z,17.23
2018-05-29T17:47:43.875Z,19.10
2018-05-29T17:50:12.291Z,18.17
2018-05-29T17:52:40.522Z,18.30
2018-05-29T17:55:08.949Z,18.27
2018-05-29T17:57:37.195Z,17.83
2018-05-29T18:00:06.112Z,19.17
2018-05-29T18:02:34.694Z,18.50
2018-05-29T18:05:03.067Z,18.10
2018-05-29T18:07:31.560Z,19.27
2018-05-29T18:09:59.927Z,19.10
2018-05-29T18:12:28.306Z,18.27
2018-05-29T18:14:56.685Z,18.83
2018-05-29T18:17:25.040Z,18.83
2018-05-29T18:19:53.442Z,17.57
2018-05-29T18:22:21.931Z,17.67
2018-05-29T18:24:50.520Z,18.53
2018-05-29T18:27:18.755Z,18.83
2018-05-29T18:29:46.979Z,18.77
2018-05-29T18:32:15.191Z,18.43
2018-05-29T18:34:43.816Z,18.97
2018-05-29T18:37:12.155Z,21.30
2018-05-29T18:39:40.429Z,22.23
2018-05-29T18:42:08.636Z,21.50
2018-05-29T18:44:37.068Z,18.40
2018-05-29T18:47:05.397Z,18.47
2018-05-29T18:49:33.885Z,18.23
2018-05-29T18:52:02.227Z,17.60
2018-05-29T18:54:30.618Z,18.87
2018-05-29T18:56:58.982Z,18.13
2018-05-29T18:59:27.286Z,18.17
2018-05-29T19:01:55.561Z,19.30
2018-05-29T19:04:23.832Z,20.73
2018-05-29T19:06:52.125Z,20.77
2018-05-29T19:09:20.491Z,22.77
2018-05-29T19:11:48.873Z,22.40
2018-05-29T19:14:17.349Z,21.57
2018-05-29T19:16:45.932Z,23.00
2018-05-29T19:19:14.621Z,23.53
2018-05-29T19:21:43.302Z,23.93
2018-05-29T19:24:12.301Z,23.93
2018-05-29T19:26:40.979Z,24.13
2018-05-29T19:29:09.954Z,23.73
2018-05-29T19:31:39.071Z,22.67
2018-05-29T19:34:08.445Z,23.37
2018-05-29T19:36:38.286Z,24.53
2018-05-29T19:39:08.406Z,24.57
2018-05-29T19:41:38.079Z,23.30
2018-05-29T19:44:07.808Z,26.30
2018-05-29T19:46:37.633Z,25.83
2018-05-29T19:49:07.752Z,26.70
2018-05-29T19:51:37.721Z,27.17
2018-05-29T19:54:07.487Z,25.10
2018-05-29T19:56:36.952Z,25.87
2018-05-29T19:59:06.997Z,25.57
2018-05-29T20:01:37.005Z,25.73
2018-05-29T20:04:06.685Z,27.43
2018-05-29T20:06:36.570Z,26.27
2018-05-29T20:09:06.375Z,27.10
2018-05-29T20:11:36.463Z,24.50
2018-05-29T20:14:05.866Z,24.67
2018-05-29T20:16:35.069Z,27.10
2018-05-29T20:19:04.082Z,26.70
2018-05-29T20:21:32.743Z,27.17
2018-05-29T20:24:01.121Z,27.83
2018-05-29T20:26:29.498Z,28.17
2018-05-29T20:28:57.781Z,27.37
2018-05-29T20:31:26.205Z,28.63
2018-05-29T20:33:54.504Z,28.47
2018-05-29T20:36:22.788Z,33.37
2018-05-29T20:38:51.098Z,33.87
2018-05-29T20:41:19.445Z,33.43
2018-05-29T20:43:47.771Z,29.67
2018-05-29T20:46:16.234Z,29.57
2018-05-29T20:48:44.526Z,29.67
2018-05-29T20:51:13.181Z,28.57
2018-05-29T20:53:41.456Z,28.80
2018-05-29T20:56:09.831Z,31.53
2018-05-29T20:58:38.087Z,30.33
2018-05-29T21:01:06.413Z,31.97
2018-05-29T21:03:34.766Z,31.57
2018-05-29T21:06:03.137Z,33.23
2018-05-29T21:08:31.415Z,35.27
2018-05-29T21:10:59.769Z,33.70
2018-05-29T21:13:28.073Z,34.20
2018-05-29T21:15:56.450Z,33.57
2018-05-29T21:18:24.723Z,33.90
2018-05-29T21:20:53.209Z,33.27
2018-05-29T21:23:21.687Z,33.87
2018-05-29T21:25:50.039Z,35.80
2018-05-29T21:28:18.338Z,35.87
2018-05-29T21:30:46.558Z,34.57
2018-05-29T21:33:14.795Z,37.10
2018-05-29T21:35:43.064Z,36.73
2018-05-29T21:38:11.295Z,32.37
2018-05-29T21:40:39.615Z,36.93
2018-05-29T21:43:08.098Z,32.63
2018-05-29T21:45:36.351Z,32.27
2018-05-29T21:48:04.628Z,27.87
2018-05-29T21:50:32.878Z,27.33
2018-05-29T21:53:01.307Z,27.67
2018-05-29T21:55:29.681Z,28.20
2018-05-29T21:57:58.058Z,29.37
2018-05-29T22:00:26.292Z,29.40
2018-05-29T22:02:54.539Z,30.03
2018-05-29T22:05:22.855Z,30.60
2018-05-29T22:07:51.162Z,30.13
2018-05-29T22:10:19.515Z,30.60
2018-05-29T22:12:47.820Z,32.50
2018-05-29T22:15:16.198Z,32.23
2018-05-29T22:17:44.543Z,32.37
2018-05-29T22:20:12.950Z,31.73
2018-05-29T22:22:41.184Z,29.57
2018-05-29T22:25:09.603Z,31.33
2018-05-29T22:27:37.980Z,29.47
2018-05-29T22:30:06.231Z,29.50
2018-05-29T22:32:34.636Z,32.67
2018-05-29T22:35:02.859Z,32.77
2018-05-29T22:37:31.185Z,33.30
2018-05-29T22:39:59.468Z,31.20
2018-05-29T22:42:27.739Z,30.90
2018-05-29T22:44:55.967Z,32.40
2018-05-29T22:47:24.228Z,30.57
2018-05-29T22:49:52.567Z,31.27
2018-05-29T22:52:20.840Z,30.80
2018-05-29T22:54:49.196Z,30.47
2018-05-29T22:57:17.647Z,31.00
2018-05-29T22:59:45.907Z,30.47
2018-05-29T23:02:14.257Z,31.47
2018-05-29T23:04:42.640Z,31.47
2018-05-29T23:07:10.994Z,31.10
2018-05-29T23:09:39.261Z,29.37
2018-05-29T23:12:07.538Z,30.90
2018-05-29T23:14:35.931Z,30.57
2018-05-29T23:17:04.204Z,31.23
2018-05-29T23:19:32.575Z,32.60
2018-05-29T23:22:00.965Z,31.90
2018-05-29T23:24:29.325Z,31.13
2018-05-29T23:26:57.622Z,32.20
2018-05-29T23:29:26.103Z,33.73
2018-05-29T23:31:54.790Z,32.57
2018-05-29T23:34:23.058Z,32.60
2018-05-29T23:36:51.347Z,32.53
2018-05-29T23:39:19.722Z,32.97
2018-05-29T23:41:48.009Z,31.17
2018-05-29T23:44:16.296Z,31.90
2018-05-29T23:46:44.655Z,31.40
2018-05-29T23:49:12.946Z,30.33
2018-05-29T23:51:41.210Z,29.83
2018-05-29T23:54:09.494Z,35.00
2018-05-29T23:56:37.757Z,47.57
2018-05-29T23:59:06.131Z,31.43
